Jordan Village, Connecticut
Current Conditions -  °F | °C
As of 12:56 PM on Monday 22 Dec 2014 (Local Time) from KGON Reporting Station
Broken Clouds Broken Clouds  
Wind Chill: 40°   Ceiling: 4700
Heat Index: 46°   Visibility: 10mi
Dew Point: 37°   Wind: 14mph
Humidity: 71%   Direction: 80°E
Pressure: 30.27"   Gusts: 23mph
Location:  41.3583°N, 72.1558°W
Report Text: KGON 221756Z 08012G20KT 10SM BKN047 08/03 A3027 RMK AO2 PRESFR SLP249 T00780028 10078 20017 58023
Loading
Personal Weather Stations






























Interactive Weather Map New forecast layout! Learn more

10-Day Weather Forecast

Advertisements
Track Severe Weather on mobile